Killeen-Fort Hood Regional, TX

10:15 PM CDT on September 18, 2014 (GMT -0500)
Draughon-Miller Central Texas Regional | Change Station
CLOSE
Current Station
Airport
Location: Temple,
Elevation: 682 ft
Nearby Weather Stations

Elev 682 ft 31.15 °N, 97.41 °W | Updated 20 minutes ago

Rain
Rain
73 °F
Feels Like 73 °F
N
0
Wind Variable Wind from North

Today
High -- | Low -- °F
--% Chance of Precip.
Yesterday
High -- | Low -- °F
Precip. -- in
7:17 AM 7:33 PM
Waning Crescent, 22% visible
Pressure 29.91 in
Visibility 10.0 miles
Clouds Few 1900 ft
Dew Point 70 °F
Humidity 88%
Rainfall 0.45 in
Snow Depth Not available.
UV 0 out of 12
Pollen .80 out of 12
Ozone Good
PM2.5 Good
Flu Activity Not available.
METAR KTPL 190255Z AUTO 00000KT 10SM FEW019 23/21 A2991 RMK AO1 P0001 60005 52010

More Conditions Fewer Conditions

Pressure 29.91 in
Visibility 10.0 miles
Clouds Few 1900 ft
Dew Point 70 °F
Humidity 88%
Rainfall 0.45 in
Snow Depth Not available.
UV 0 out of 12
Pollen .80 out of 12
Ozone Good
PM2.5 Good
Flu Activity Not available.
METAR KTPL 190255Z AUTO 00000KT 10SM FEW019 23/21 A2991 RMK AO1 P0001 60005 52010

More Conditions Fewer Conditions

10-Day Weather Forecast

Almanac

Astronomy

Sep. 18, 2014 Rise Set
Actual Time 7:17 AM CDT 7:33 PM CDT
Civil Twilight 6:53 AM CDT 7:57 PM CDT
Nautical Twilight 6:24 AM CDT 8:25 PM CDT
Astronomical Twilight 5:56 AM CDT 8:53 PM CDT
Moon 2:25 AM CDT (9/18) 4:11 PM CDT (9/18)
Length of Visible Light 13h 04m
Length of Day
12h 15m
Tomorrow will be 1m 51s shorter.
Waning Crescent, 22% of the Moon is Illuminated
Today
Waning Crescent
Sep 24
New
Oct 1
First Quarter
Oct 8
Full
Oct 15
Last Quarter

Today's Extremes

State Highs State Lows

Community

WunderPhotos

Upload Photos

1,754,550 photos uploaded!

Nearby

Air Quality

  Air Quality AQ Index Pollutant
Yesterday Good
OZONE
Yesterday Good
PM2.5
Current Good
OZONE
Current Good
PM2.5
Thursday Good
PM10
Thursday Good
OZONE
Friday Good
PM10
Friday Good
OZONE
Saturday Good
PM10
Saturday Good
OZONE
Sunday Good
PM10
Sunday Good
OZONE

Snow Depth

Station Depth Elevation
No new snow has been reported.

Earthquake Activity

City Distance Mag. Time & Date
No recent earthquake activity has been reported nearby.
Minimum magnitude displayed is 2.5.

Coastal Water Temperatures

Place Temperature
No Stations Reporting

Nearby Weather Stations